createdAt,value
2018-05-04T00:00:56.850Z,9.28
2018-05-04T00:03:25.149Z,9.28
2018-05-04T00:05:53.463Z,9.43
2018-05-04T00:08:22.525Z,9.24
2018-05-04T00:10:51.725Z,9.19
2018-05-04T00:13:20.856Z,9.08
2018-05-04T00:15:49.891Z,9.05
2018-05-04T00:18:18.193Z,9.05
2018-05-04T00:20:46.506Z,9.00
2018-05-04T00:23:15.551Z,9.01
2018-05-04T00:25:43.849Z,9.02
2018-05-04T00:28:12.118Z,8.94
2018-05-04T00:30:44.463Z,9.10
2018-05-04T00:33:12.762Z,8.96
2018-05-04T00:35:41.125Z,8.80
2018-05-04T00:38:09.402Z,8.77
2018-05-04T00:40:37.707Z,8.81
2018-05-04T00:43:05.976Z,8.80
2018-05-04T00:45:34.272Z,8.72
2018-05-04T00:48:02.574Z,8.64
2018-05-04T00:50:31.631Z,8.62
2018-05-04T00:52:59.912Z,8.63
2018-05-04T00:55:28.222Z,8.59
2018-05-04T00:57:57.269Z,8.57
2018-05-04T01:00:25.577Z,8.65
2018-05-04T01:02:53.873Z,8.65
2018-05-04T01:05:23.061Z,8.64
2018-05-04T01:07:51.328Z,8.65
2018-05-04T01:10:20.071Z,8.54
2018-05-04T01:12:48.358Z,8.51
2018-05-04T01:15:16.667Z,8.54
2018-05-04T01:17:44.985Z,8.52
2018-05-04T01:20:13.301Z,8.48
2018-05-04T01:22:41.611Z,8.43
2018-05-04T01:25:10.837Z,8.41
2018-05-04T01:27:39.166Z,8.38
2018-05-04T01:30:07.485Z,8.39
2018-05-04T01:32:36.516Z,8.39
2018-05-04T01:35:04.857Z,8.40
2018-05-04T01:37:33.955Z,8.38
2018-05-04T01:40:03.004Z,8.36
2018-05-04T01:42:31.317Z,8.29
2018-05-04T01:45:00.931Z,8.37
2018-05-04T01:47:29.973Z,8.36
2018-05-04T01:49:58.277Z,8.35
2018-05-04T01:52:26.593Z,8.28
2018-05-04T01:54:58.871Z,8.24
2018-05-04T01:57:27.196Z,8.21
2018-05-04T01:59:55.722Z,8.23
2018-05-04T02:02:24.618Z,8.19
2018-05-04T02:04:53.184Z,8.18
2018-05-04T02:07:22.758Z,8.13
2018-05-04T02:09:51.243Z,8.10
2018-05-04T02:12:20.170Z,8.00
2018-05-04T02:14:49.260Z,8.05
2018-05-04T02:17:18.320Z,8.01
2018-05-04T02:19:46.669Z,8.01
2018-05-04T02:22:15.129Z,8.03
2018-05-04T02:24:43.420Z,7.97
2018-05-04T02:27:11.717Z,7.96
2018-05-04T02:29:39.992Z,7.96
2018-05-04T02:32:08.329Z,7.88
2018-05-04T02:34:37.432Z,7.83
2018-05-04T02:37:05.731Z,7.89
2018-05-04T02:39:34.130Z,7.71
2018-05-04T02:42:02.413Z,7.76
2018-05-04T02:44:30.744Z,7.89
2018-05-04T02:46:59.094Z,7.76
2018-05-04T02:49:27.403Z,7.74
2018-05-04T02:51:55.806Z,7.76
2018-05-04T02:54:24.298Z,7.63
2018-05-04T02:56:53.044Z,7.50
2018-05-04T02:59:21.508Z,7.42
2018-05-04T03:01:50.088Z,7.34
2018-05-04T03:04:18.847Z,7.29
2018-05-04T03:06:47.464Z,7.27
2018-05-04T03:09:15.790Z,7.27
2018-05-04T03:11:44.098Z,7.33
2018-05-04T03:14:12.414Z,7.23
2018-05-04T03:16:41.450Z,7.20
2018-05-04T03:19:09.789Z,7.21
2018-05-04T03:21:38.060Z,7.17
2018-05-04T03:24:07.145Z,7.19
2018-05-04T03:26:35.407Z,7.13
2018-05-04T03:29:03.717Z,7.11
2018-05-04T03:31:32.883Z,7.11
2018-05-04T03:34:01.170Z,7.08
2018-05-04T03:36:29.484Z,7.05
2018-05-04T03:38:57.820Z,6.99
2018-05-04T03:41:26.112Z,6.99
2018-05-04T03:43:55.171Z,6.94
2018-05-04T03:46:23.454Z,6.92
2018-05-04T03:48:51.857Z,6.89
2018-05-04T03:51:20.191Z,6.87
2018-05-04T03:53:48.469Z,6.87
2018-05-04T03:56:16.767Z,6.88
2018-05-04T03:59:02.731Z,6.87
2018-05-04T04:01:48.867Z,6.92
2018-05-04T04:04:17.167Z,6.95
2018-05-04T04:06:46.206Z,7.00
2018-05-04T04:09:14.540Z,7.07
2018-05-04T04:11:43.589Z,7.12
2018-05-04T04:14:11.864Z,7.20
2018-05-04T04:16:40.228Z,7.22
2018-05-04T04:19:09.233Z,7.37
2018-05-04T04:21:37.618Z,7.34
2018-05-04T04:24:05.934Z,7.50
2018-05-04T04:26:34.999Z,7.55
2018-05-04T04:29:03.376Z,7.74
2018-05-04T04:31:31.688Z,7.82
2018-05-04T04:34:00.745Z,8.23
2018-05-04T04:36:29.036Z,9.99
2018-05-04T04:38:57.520Z,10.32
2018-05-04T04:41:25.915Z,12.74
2018-05-04T04:43:54.325Z,14.12
2018-05-04T04:46:22.850Z,14.64
2018-05-04T04:48:51.835Z,15.07
2018-05-04T04:51:21.001Z,15.81
2018-05-04T04:53:49.472Z,16.90
2018-05-04T04:56:18.518Z,17.30
2018-05-04T04:58:46.830Z,16.90
2018-05-04T05:01:15.913Z,16.67
2018-05-04T05:03:44.295Z,16.13
2018-05-04T05:06:12.599Z,16.77
2018-05-04T05:08:40.987Z,19.04
2018-05-04T05:11:09.322Z,17.62
2018-05-04T05:13:37.633Z,17.41
2018-05-04T05:16:06.688Z,15.64
2018-05-04T05:18:34.992Z,18.13
2018-05-04T05:21:04.091Z,19.98
2018-05-04T05:23:33.151Z,21.19
2018-05-04T05:26:01.465Z,19.90
2018-05-04T05:28:30.537Z,19.12
2018-05-04T05:30:58.976Z,18.34
2018-05-04T05:33:27.274Z,21.16
2018-05-04T05:35:55.687Z,18.92
2018-05-04T05:38:24.769Z,20.79
2018-05-04T05:40:53.179Z,19.38
2018-05-04T05:43:22.306Z,19.88
2018-05-04T05:45:51.504Z,20.13
2018-05-04T05:48:19.899Z,20.90
2018-05-04T05:50:48.231Z,20.67
2018-05-04T05:53:17.557Z,21.23
2018-05-04T05:55:45.956Z,20.79
2018-05-04T05:58:14.250Z,20.51
2018-05-04T06:00:42.572Z,17.81
2018-05-04T06:03:17.281Z,20.63
2018-05-04T06:05:45.613Z,21.93
2018-05-04T06:08:18.364Z,21.96
2018-05-04T06:10:52.600Z,24.04
2018-05-04T06:13:20.918Z,23.85
2018-05-04T06:15:49.366Z,23.79
2018-05-04T06:18:23.697Z,23.46
2018-05-04T06:20:52.067Z,22.69
2018-05-04T06:23:20.784Z,18.95
2018-05-04T06:25:50.348Z,21.46
2018-05-04T06:28:19.789Z,24.14
2018-05-04T06:30:48.242Z,24.20
2018-05-04T06:33:17.072Z,22.17
2018-05-04T06:35:45.409Z,22.44
2018-05-04T06:38:13.710Z,22.94
2018-05-04T06:40:42.015Z,20.83
2018-05-04T06:43:15.031Z,23.73
2018-05-04T06:45:44.261Z,23.32
2018-05-04T06:48:15.543Z,22.58
2018-05-04T06:50:48.247Z,21.79
2018-05-04T06:53:16.568Z,22.24
2018-05-04T06:55:44.864Z,23.22
2018-05-04T06:58:16.071Z,22.33
2018-05-04T07:00:44.752Z,22.47
2018-05-04T07:03:13.134Z,21.96
2018-05-04T07:05:42.209Z,21.62
2018-05-04T07:08:11.289Z,22.95
2018-05-04T07:10:40.376Z,20.62
2018-05-04T07:13:08.760Z,22.21
2018-05-04T07:15:37.601Z,21.87
2018-05-04T07:18:10.303Z,21.96
2018-05-04T07:20:40.293Z,21.77
2018-05-04T07:23:14.096Z,23.10
2018-05-04T07:25:42.770Z,21.53
2018-05-04T07:28:12.396Z,22.81
2018-05-04T07:30:41.030Z,19.34
2018-05-04T07:33:09.481Z,23.22
2018-05-04T07:35:37.828Z,21.55
2018-05-04T07:38:07.103Z,22.78
2018-05-04T07:40:40.336Z,22.95
2018-05-04T07:43:08.713Z,19.93
2018-05-04T07:45:36.934Z,21.71
2018-05-04T07:48:09.639Z,20.21
2018-05-04T07:50:37.933Z,19.28
2018-05-04T07:53:07.121Z,18.27
2018-05-04T07:55:36.195Z,16.85
2018-05-04T07:58:04.939Z,16.39
2018-05-04T08:00:37.568Z,15.75
2018-05-04T08:03:06.016Z,15.47
2018-05-04T08:05:34.297Z,15.24
2018-05-04T08:08:02.805Z,14.86
2018-05-04T08:10:32.899Z,15.07
2018-05-04T08:13:02.208Z,15.16
2018-05-04T08:15:31.529Z,14.91
2018-05-04T08:18:00.604Z,14.92
2018-05-04T08:20:28.985Z,15.04
2018-05-04T08:22:57.325Z,14.83
2018-05-04T08:25:25.684Z,14.82
2018-05-04T08:27:54.090Z,14.40
2018-05-04T08:30:22.394Z,14.68
2018-05-04T08:32:50.763Z,14.83
2018-05-04T08:35:19.162Z,15.04
2018-05-04T08:37:51.958Z,14.42
2018-05-04T08:40:27.345Z,14.99
2018-05-04T08:42:55.749Z,14.69
2018-05-04T08:45:24.030Z,15.14
2018-05-04T08:47:53.164Z,15.01
2018-05-04T08:50:22.217Z,15.52
2018-05-04T08:52:51.243Z,15.63
2018-05-04T08:55:20.293Z,15.69
2018-05-04T08:57:48.638Z,15.58
2018-05-04T09:00:16.996Z,15.74
2018-05-04T09:02:45.300Z,15.94
2018-05-04T09:05:14.567Z,16.16
2018-05-04T09:07:42.881Z,16.20
2018-05-04T09:10:11.489Z,16.10
2018-05-04T09:12:39.807Z,15.82
2018-05-04T09:15:08.156Z,16.50
2018-05-04T09:17:36.452Z,16.32
2018-05-04T09:20:04.812Z,16.76
2018-05-04T09:22:33.102Z,16.84
2018-05-04T09:25:01.388Z,16.30
2018-05-04T09:27:29.676Z,16.57
2018-05-04T09:30:04.608Z,16.40
2018-05-04T09:32:33.679Z,16.81
2018-05-04T09:35:02.789Z,17.08
2018-05-04T09:37:31.093Z,16.75
2018-05-04T09:40:00.196Z,16.88
2018-05-04T09:42:28.640Z,16.50
2018-05-04T09:44:56.929Z,16.38
2018-05-04T09:47:29.225Z,17.03
2018-05-04T09:49:57.548Z,16.74
2018-05-04T09:52:26.766Z,16.48
2018-05-04T09:54:55.086Z,16.88
2018-05-04T09:57:24.321Z,16.77
2018-05-04T09:59:52.625Z,16.72
2018-05-04T10:02:20.992Z,16.82
2018-05-04T10:04:49.265Z,17.75
2018-05-04T10:07:17.693Z,18.86
2018-05-04T10:09:46.032Z,18.25
2018-05-04T10:12:14.353Z,18.30
2018-05-04T10:14:45.470Z,20.16
2018-05-04T10:17:14.606Z,19.47
2018-05-04T10:19:43.482Z,20.26
2018-05-04T10:22:12.561Z,19.48
2018-05-04T10:24:41.839Z,19.43
2018-05-04T10:27:10.151Z,19.77
2018-05-04T10:29:38.756Z,19.42
2018-05-04T10:32:07.127Z,19.57
2018-05-04T10:34:35.471Z,20.03
2018-05-04T10:37:03.828Z,19.90
2018-05-04T10:39:32.223Z,20.52
2018-05-04T10:42:00.553Z,19.79
2018-05-04T10:44:28.921Z,19.56
2018-05-04T10:46:57.258Z,20.96
2018-05-04T10:49:25.685Z,19.93
2018-05-04T10:51:54.093Z,19.56
2018-05-04T10:54:23.031Z,19.99
2018-05-04T10:56:51.386Z,19.27
2018-05-04T10:59:19.693Z,17.94
2018-05-04T11:01:47.981Z,17.65
2018-05-04T11:04:16.991Z,18.90
2018-05-04T11:06:46.712Z,18.65
2018-05-04T11:09:16.259Z,17.65
2018-05-04T11:11:45.540Z,18.22
2018-05-04T11:14:17.777Z,18.31
2018-05-04T11:16:46.136Z,17.63
2018-05-04T11:19:14.498Z,17.38
2018-05-04T11:21:44.902Z,17.45
2018-05-04T11:24:13.265Z,17.04
2018-05-04T11:26:41.573Z,17.54
2018-05-04T11:29:11.765Z,17.56
2018-05-04T11:31:40.069Z,17.27
2018-05-04T11:34:09.146Z,17.29
2018-05-04T11:36:37.428Z,17.31
2018-05-04T11:39:06.148Z,17.32
2018-05-04T11:41:36.063Z,16.52
2018-05-04T11:44:09.041Z,17.02
2018-05-04T11:46:38.177Z,17.00
2018-05-04T11:49:14.677Z,17.30
2018-05-04T11:51:43.275Z,17.51
2018-05-04T11:54:11.668Z,17.43
2018-05-04T11:56:40.804Z,16.91
2018-05-04T11:59:09.220Z,17.24
2018-05-04T12:01:37.523Z,17.43
2018-05-04T12:04:06.624Z,17.71
2018-05-04T12:06:34.966Z,17.54
2018-05-04T12:09:03.420Z,17.74
2018-05-04T12:11:31.834Z,17.58
2018-05-04T12:14:00.142Z,17.74
2018-05-04T12:16:29.478Z,17.44
2018-05-04T12:18:57.769Z,17.45
2018-05-04T12:21:26.820Z,17.75
2018-05-04T12:23:56.133Z,17.49
2018-05-04T12:26:25.260Z,17.23
2018-05-04T12:28:53.606Z,17.91
2018-05-04T12:31:22.026Z,18.19
2018-05-04T12:33:50.404Z,17.82
2018-05-04T12:36:18.789Z,17.79
2018-05-04T12:38:47.902Z,17.89
2018-05-04T12:41:17.285Z,17.93
2018-05-04T12:43:45.959Z,18.14
2018-05-04T12:46:14.929Z,17.80
2018-05-04T12:48:44.587Z,17.72
2018-05-04T12:51:13.642Z,17.71
2018-05-04T12:53:43.611Z,17.57
2018-05-04T12:56:18.594Z,17.65
2018-05-04T12:58:47.808Z,17.79
2018-05-04T13:01:17.080Z,17.75
2018-05-04T13:03:46.169Z,17.54
2018-05-04T13:06:20.421Z,17.20
2018-05-04T13:08:52.908Z,17.77
2018-05-04T13:11:21.319Z,17.57
2018-05-04T13:13:50.735Z,17.44
2018-05-04T13:16:24.044Z,17.64
2018-05-04T13:18:53.072Z,17.99
2018-05-04T13:21:21.369Z,18.23
2018-05-04T13:23:49.710Z,17.88
2018-05-04T13:26:19.567Z,17.71
2018-05-04T13:28:57.202Z,17.69
2018-05-04T13:31:26.744Z,17.99
2018-05-04T13:33:55.291Z,17.61
2018-05-04T13:36:24.118Z,17.94
2018-05-04T13:38:52.763Z,18.14
2018-05-04T13:41:21.636Z,18.41
2018-05-04T13:43:54.325Z,18.45
2018-05-04T13:46:24.327Z,18.23
2018-05-04T13:48:54.382Z,18.71
2018-05-04T13:51:27.035Z,18.03
2018-05-04T13:53:56.184Z,17.64
2018-05-04T13:56:24.554Z,17.92
2018-05-04T13:58:57.036Z,17.83
2018-05-04T14:01:30.194Z,18.03
2018-05-04T14:03:59.303Z,17.80
2018-05-04T14:06:28.391Z,17.73
2018-05-04T14:08:56.816Z,18.00
2018-05-04T14:11:31.224Z,18.39
2018-05-04T14:14:04.423Z,18.08
2018-05-04T14:16:33.557Z,17.82
2018-05-04T14:19:02.769Z,18.31
2018-05-04T14:21:35.892Z,17.89
2018-05-04T14:24:05.641Z,17.96
2018-05-04T14:26:40.390Z,18.00
2018-05-04T14:29:15.624Z,18.18
2018-05-04T14:31:51.595Z,18.26
2018-05-04T14:34:20.217Z,18.34
2018-05-04T14:36:49.487Z,18.44
2018-05-04T14:39:19.975Z,18.05
2018-05-04T14:41:49.694Z,18.40
2018-05-04T14:44:23.230Z,18.24
2018-05-04T14:46:56.073Z,18.33
2018-05-04T14:49:25.757Z,18.38
2018-05-04T14:51:55.594Z,18.27
2018-05-04T15:07:25.023Z,18.37
2018-05-04T15:09:54.691Z,18.10
2018-05-04T15:12:23.077Z,18.55
2018-05-04T15:14:51.449Z,18.50
2018-05-04T15:17:19.817Z,18.30
2018-05-04T15:19:48.200Z,18.40
2018-05-04T15:22:16.652Z,18.41
2018-05-04T15:24:45.624Z,18.21
2018-05-04T15:27:14.667Z,18.19
2018-05-04T15:29:43.642Z,18.27
2018-05-04T15:32:17.825Z,18.16
2018-05-04T15:34:47.443Z,18.22
2018-05-04T15:37:16.254Z,18.36
2018-05-04T15:39:44.633Z,18.08
2018-05-04T15:42:12.950Z,18.02
2018-05-04T15:44:41.254Z,18.02
2018-05-04T15:47:10.502Z,18.02
2018-05-04T15:49:38.896Z,18.09
2018-05-04T15:52:11.218Z,18.01
2018-05-04T15:54:39.639Z,18.22
2018-05-04T15:57:08.033Z,18.24
2018-05-04T15:59:37.189Z,17.74
2018-05-04T16:02:06.309Z,18.02
2018-05-04T16:04:34.690Z,18.11
2018-05-04T16:07:03.175Z,18.23
2018-05-04T16:09:31.516Z,18.19
2018-05-04T16:11:59.910Z,18.08
2018-05-04T16:14:28.287Z,18.15
2018-05-04T16:16:57.554Z,18.15
2018-05-04T16:19:26.802Z,17.96
2018-05-04T16:21:59.402Z,18.03
2018-05-04T16:24:27.758Z,17.99
2018-05-04T16:26:57.131Z,18.17
2018-05-04T16:29:26.313Z,18.25
2018-05-04T16:31:55.727Z,18.27
2018-05-04T16:34:24.129Z,18.10
2018-05-04T16:36:52.644Z,18.11
2018-05-04T16:39:21.080Z,17.95
2018-05-04T16:41:50.391Z,17.87
2018-05-04T16:44:18.744Z,17.87
2018-05-04T16:46:54.998Z,17.89
2018-05-04T16:49:28.378Z,18.02
2018-05-04T16:51:57.546Z,17.93
2018-05-04T16:54:25.946Z,17.88
2018-05-04T16:56:54.775Z,17.82
2018-05-04T16:59:23.201Z,17.85
2018-05-04T17:01:56.405Z,17.94
2018-05-04T17:04:29.289Z,17.86
2018-05-04T17:06:57.699Z,17.85
2018-05-04T17:09:26.904Z,17.68
2018-05-04T17:12:10.293Z,17.78
2018-05-04T17:14:38.844Z,17.76
2018-05-04T17:17:07.254Z,17.63
2018-05-04T17:19:35.806Z,17.62
2018-05-04T17:22:04.286Z,17.66
2018-05-04T17:24:33.478Z,17.69
2018-05-04T17:27:01.962Z,17.67
2018-05-04T17:29:30.468Z,17.70
2018-05-04T17:31:58.952Z,17.65
2018-05-04T17:34:28.237Z,17.51
2018-05-04T17:36:57.256Z,17.55
2018-05-04T17:39:26.415Z,17.48
2018-05-04T17:41:55.019Z,17.53
2018-05-04T17:44:23.628Z,17.55
2018-05-04T17:46:52.168Z,17.59
2018-05-04T17:49:21.639Z,17.54
2018-05-04T17:51:51.672Z,17.31
2018-05-04T17:54:21.002Z,17.25
2018-05-04T17:56:49.603Z,17.28
2018-05-04T17:59:18.216Z,17.26
2018-05-04T18:01:48.375Z,17.21
2018-05-04T18:04:16.935Z,17.11
2018-05-04T18:06:46.213Z,17.05
2018-05-04T18:09:14.667Z,17.03
2018-05-04T18:11:43.045Z,16.99
2018-05-04T18:14:18.590Z,16.89
2018-05-04T18:16:47.992Z,16.84
2018-05-04T18:19:17.600Z,16.79
2018-05-04T18:21:45.991Z,16.76
2018-05-04T18:24:16.523Z,16.68
2018-05-04T18:26:44.944Z,16.61
2018-05-04T18:29:17.679Z,16.57
2018-05-04T18:31:49.277Z,16.50
2018-05-04T18:34:18.484Z,16.41
2018-05-04T18:36:47.606Z,16.44
2018-05-04T18:39:16.776Z,16.36
2018-05-04T18:41:46.637Z,16.31
2018-05-04T18:44:15.983Z,16.25
2018-05-04T18:46:44.511Z,16.19
2018-05-04T18:49:12.954Z,16.12
2018-05-04T18:51:42.201Z,16.02
2018-05-04T18:54:10.697Z,16.01
2018-05-04T18:56:43.085Z,15.90
2018-05-04T18:59:11.514Z,15.88
2018-05-04T19:01:44.076Z,15.78
2018-05-04T19:04:14.140Z,15.72
2018-05-04T19:06:42.687Z,15.78
2018-05-04T19:09:11.130Z,15.68
2018-05-04T19:11:44.372Z,15.60
2018-05-04T19:14:13.554Z,15.54
2018-05-04T19:16:42.694Z,15.51
2018-05-04T19:19:11.142Z,15.39
2018-05-04T19:21:40.303Z,15.42
2018-05-04T19:24:09.060Z,15.37
2018-05-04T19:26:37.489Z,15.34
2018-05-04T19:29:07.179Z,15.28
2018-05-04T19:31:36.200Z,15.25
2018-05-04T19:34:05.672Z,15.11
2018-05-04T19:36:34.095Z,15.07
2018-05-04T19:39:03.257Z,15.03
2018-05-04T19:41:31.743Z,14.92
2018-05-04T19:44:01.729Z,14.89
2018-05-04T19:46:30.187Z,14.86
2018-05-04T19:48:58.791Z,14.79
2018-05-04T19:51:27.281Z,14.69
2018-05-04T19:53:56.371Z,14.68
2018-05-04T19:56:25.553Z,14.59
2018-05-04T19:58:58.406Z,14.62
2018-05-04T20:01:27.676Z,14.48
2018-05-04T20:03:56.181Z,14.51
2018-05-04T20:06:25.361Z,14.36
2018-05-04T20:08:53.827Z,14.30
2018-05-04T20:11:22.959Z,14.22
2018-05-04T20:13:52.145Z,14.14
2018-05-04T20:16:21.817Z,14.13
2018-05-04T20:18:50.600Z,14.01
2018-05-04T20:21:19.018Z,13.97
2018-05-04T20:23:47.483Z,13.96
2018-05-04T20:26:17.062Z,13.93
2018-05-04T20:28:45.515Z,13.81
2018-05-04T20:31:14.046Z,13.79
2018-05-04T20:33:42.551Z,13.94
2018-05-04T20:36:11.957Z,13.82
2018-05-04T20:38:44.675Z,13.77
2018-05-04T20:41:13.200Z,13.75
2018-05-04T20:43:41.625Z,13.70
2018-05-04T20:46:10.902Z,13.68
2018-05-04T20:48:40.214Z,13.66
2018-05-04T20:51:09.785Z,13.60
2018-05-04T20:53:38.361Z,13.62
2018-05-04T20:56:10.766Z,13.58
2018-05-04T20:58:39.375Z,13.64
2018-05-04T21:01:08.548Z,13.49
2018-05-04T21:03:36.932Z,13.51
2018-05-04T21:06:06.272Z,13.34
2018-05-04T21:08:35.225Z,13.43
2018-05-04T21:11:03.586Z,13.34
2018-05-04T21:13:32.010Z,13.28
2018-05-04T21:16:01.247Z,13.17
2018-05-04T21:18:29.658Z,13.30
2018-05-04T21:20:58.045Z,13.35
2018-05-04T21:23:26.504Z,13.44
2018-05-04T21:25:59.141Z,13.41
2018-05-04T21:28:27.799Z,13.39
2018-05-04T21:30:56.278Z,13.23
2018-05-04T21:33:26.355Z,13.25
2018-05-04T21:35:54.838Z,13.10
2018-05-04T21:38:23.281Z,13.12
2018-05-04T21:40:52.392Z,13.07
2018-05-04T21:43:24.975Z,13.11
2018-05-04T21:45:53.442Z,12.91
2018-05-04T21:48:21.854Z,12.83
2018-05-04T21:50:50.237Z,12.98
2018-05-04T21:53:42.631Z,12.96
2018-05-04T21:56:37.857Z,12.88
2018-05-04T21:59:20.204Z,12.84
2018-05-04T22:01:56.896Z,12.72
2018-05-04T22:04:50.563Z,12.65
2018-05-04T22:07:19.358Z,12.62
2018-05-04T22:09:52.012Z,12.58
2018-05-04T22:12:28.695Z,12.45
2018-05-04T22:14:57.121Z,12.45
2018-05-04T22:17:26.433Z,12.29
2018-05-04T22:19:55.423Z,12.13
2018-05-04T22:22:23.835Z,12.05
2018-05-04T22:24:52.181Z,12.00
2018-05-04T22:27:20.995Z,12.06
2018-05-04T22:29:57.561Z,12.00
2018-05-04T22:32:26.699Z,12.21
2018-05-04T22:34:55.029Z,12.12
2018-05-04T22:37:24.647Z,12.12
2018-05-04T22:39:53.318Z,11.98
2018-05-04T22:42:22.662Z,11.93
2018-05-04T22:44:51.068Z,11.77
2018-05-04T22:47:20.355Z,11.81
2018-05-04T22:49:48.965Z,11.65
2018-05-04T22:52:18.487Z,11.84
2018-05-04T22:54:47.780Z,11.76
2018-05-04T22:57:16.939Z,11.85
2018-05-04T22:59:49.484Z,11.73
2018-05-04T23:02:17.882Z,11.79
2018-05-04T23:04:46.274Z,11.65
2018-05-04T23:07:15.537Z,11.75
2018-05-04T23:09:44.774Z,11.71
2018-05-04T23:12:13.198Z,11.57
2018-05-04T23:14:41.653Z,11.50
2018-05-04T23:17:10.840Z,11.64
2018-05-04T23:19:39.326Z,11.52
2018-05-04T23:22:08.613Z,11.42
2018-05-04T23:24:37.173Z,11.24
2018-05-04T23:27:05.844Z,11.46
2018-05-04T23:29:35.024Z,11.50
2018-05-04T23:32:07.776Z,11.57
2018-05-04T23:34:37.213Z,11.50
2018-05-04T23:37:06.783Z,11.47
2018-05-04T23:39:35.949Z,11.23
2018-05-04T23:42:04.537Z,11.27
2018-05-04T23:44:33.170Z,11.37
2018-05-04T23:47:02.521Z,11.25
2018-05-04T23:49:31.176Z,11.16
2018-05-04T23:51:59.844Z,11.17
2018-05-04T23:54:33.483Z,11.17
2018-05-04T23:57:02.231Z,11.24
2018-05-04T23:59:32.273Z,11.09
